createdAt,value
2022-11-21T00:01:01.117Z,24.48
2022-11-21T00:03:27.868Z,21.20
2022-11-21T00:05:54.616Z,29.38
2022-11-21T00:08:22.059Z,17.80
2022-11-21T00:10:49.314Z,20.02
2022-11-21T00:13:19.017Z,15.35
2022-11-21T00:15:47.303Z,18.45
2022-11-21T00:18:14.424Z,20.40
2022-11-21T00:20:42.621Z,15.43
2022-11-21T00:23:10.007Z,19.75
2022-11-21T00:25:37.579Z,23.33
2022-11-21T00:28:05.267Z,25.65
2022-11-21T00:30:31.996Z,23.25
2022-11-21T00:32:59.155Z,20.80
2022-11-21T00:35:26.076Z,14.80
2022-11-21T00:37:53.024Z,22.23
2022-11-21T00:40:20.037Z,21.58
2022-11-21T00:42:46.773Z,17.52
2022-11-21T00:45:13.540Z,19.42
2022-11-21T00:47:40.281Z,23.48
2022-11-21T00:50:07.565Z,25.63
2022-11-21T00:52:34.387Z,19.42
2022-11-21T00:55:01.221Z,22.50
2022-11-21T00:57:28.150Z,23.88
2022-11-21T00:59:54.900Z,24.67
2022-11-21T01:02:21.781Z,23.58
2022-11-21T01:04:48.529Z,23.88
2022-11-21T01:07:15.459Z,21.20
2022-11-21T01:09:42.271Z,21.67
2022-11-21T01:12:09.088Z,25.65
2022-11-21T01:14:35.928Z,29.27
2022-11-21T01:17:02.712Z,25.52
2022-11-21T01:19:29.452Z,23.63
2022-11-21T01:21:56.215Z,21.45
2022-11-21T01:24:23.086Z,15.07
2022-11-21T01:26:51.099Z,22.95
2022-11-21T01:29:17.956Z,20.13
2022-11-21T01:31:44.746Z,19.83
2022-11-21T01:34:11.579Z,26.20
2022-11-21T01:36:38.295Z,17.88
2022-11-21T01:39:06.888Z,15.55
2022-11-21T01:41:44.845Z,19.23
2022-11-21T01:44:44.788Z,20.20
2022-11-21T01:47:12.861Z,22.45
2022-11-21T01:49:42.215Z,27.20
2022-11-21T01:52:18.379Z,20.25
2022-11-21T01:54:53.429Z,24.33
2022-11-21T01:57:37.880Z,22.17
2022-11-21T02:00:18.800Z,28.15
2022-11-21T02:02:51.191Z,21.63
2022-11-21T02:05:25.212Z,19.45
2022-11-21T02:07:55.534Z,19.52
2022-11-21T02:10:22.978Z,23.58
2022-11-21T02:12:51.850Z,21.50
2022-11-21T02:15:21.554Z,23.63
2022-11-21T02:17:48.253Z,22.73
2022-11-21T02:20:18.523Z,17.67
2022-11-21T02:23:07.624Z,11.38
2022-11-21T02:25:37.116Z,18.65
2022-11-21T02:28:07.324Z,12.57
2022-11-21T02:30:37.660Z,11.93
2022-11-21T02:33:04.846Z,16.92
2022-11-21T02:35:33.786Z,16.20
2022-11-21T02:38:48.017Z,23.30
2022-11-21T02:41:26.576Z,14.93
2022-11-21T02:43:59.256Z,14.68
2022-11-21T02:46:27.939Z,16.60
2022-11-21T02:48:56.505Z,11.73
2022-11-21T02:51:23.388Z,16.27
2022-11-21T02:53:50.200Z,21.08
2022-11-21T02:56:17.496Z,13.93
2022-11-21T02:58:44.700Z,8.77
2022-11-21T03:01:11.488Z,16.08
2022-11-21T03:03:38.470Z,14.40
2022-11-21T03:06:05.356Z,13.30
2022-11-21T03:08:32.189Z,11.73
2022-11-21T03:10:58.960Z,13.25
2022-11-21T03:13:25.756Z,22.88
2022-11-21T03:15:52.652Z,13.02
2022-11-21T03:18:19.418Z,9.68
2022-11-21T03:20:46.188Z,15.63
2022-11-21T03:23:12.933Z,13.43
2022-11-21T03:25:39.662Z,16.77
2022-11-21T03:28:06.375Z,15.82
2022-11-21T03:30:33.078Z,12.88
2022-11-21T03:32:59.850Z,8.93
2022-11-21T03:35:27.035Z,18.70
2022-11-21T03:37:53.979Z,12.60
2022-11-21T03:40:20.762Z,16.42
2022-11-21T03:42:47.521Z,18.23
2022-11-21T03:45:14.261Z,18.65
2022-11-21T03:47:41.243Z,11.55
2022-11-21T03:50:08.400Z,11.20
2022-11-21T03:52:35.176Z,11.88
2022-11-21T03:55:02.016Z,16.98
2022-11-21T03:57:28.788Z,15.77
2022-11-21T03:59:55.522Z,18.95
2022-11-21T04:02:22.239Z,16.98
2022-11-21T04:04:48.948Z,15.10
2022-11-21T04:07:16.589Z,17.45
2022-11-21T04:09:43.454Z,13.20
2022-11-21T04:12:10.404Z,11.27
2022-11-21T04:14:37.276Z,14.20
2022-11-21T04:17:04.073Z,9.07
2022-11-21T04:19:30.875Z,13.13
2022-11-21T04:21:57.664Z,9.65
2022-11-21T04:24:24.476Z,15.82
2022-11-21T04:26:51.224Z,10.88
2022-11-21T04:29:17.918Z,14.23
2022-11-21T04:31:44.644Z,10.68
2022-11-21T04:34:11.435Z,12.77
2022-11-21T04:36:38.261Z,13.55
2022-11-21T04:39:05.107Z,12.05
2022-11-21T04:41:31.963Z,14.48
2022-11-21T04:43:58.691Z,13.43
2022-11-21T04:46:25.497Z,13.85
2022-11-21T04:48:52.245Z,9.25
2022-11-21T04:51:19.148Z,13.45
2022-11-21T04:53:45.900Z,13.38
2022-11-21T04:56:16.330Z,6.82
2022-11-21T04:58:44.755Z,12.88
2022-11-21T05:01:12.101Z,14.85
2022-11-21T05:03:39.100Z,16.42
2022-11-21T05:06:05.953Z,15.07
2022-11-21T05:08:32.708Z,11.88
2022-11-21T05:11:18.334Z,13.23
2022-11-21T05:13:45.077Z,10.57
2022-11-21T05:16:11.872Z,15.02
2022-11-21T05:18:38.697Z,13.73
2022-11-21T05:21:05.502Z,13.02
2022-11-21T05:23:32.276Z,13.15
2022-11-21T05:25:59.057Z,11.50
2022-11-21T05:28:25.808Z,11.52
2022-11-21T05:30:53.349Z,12.38
2022-11-21T05:33:20.440Z,13.07
2022-11-21T05:35:47.377Z,17.42
2022-11-21T05:38:14.173Z,12.18
2022-11-21T05:40:40.935Z,13.38
2022-11-21T05:43:27.924Z,17.50
2022-11-21T05:45:54.634Z,12.48
2022-11-21T05:48:21.408Z,12.32
2022-11-21T05:50:51.795Z,15.63
2022-11-21T05:53:19.064Z,15.13
2022-11-21T05:55:46.510Z,15.60
2022-11-21T05:58:13.652Z,19.92
2022-11-21T06:00:40.410Z,14.90
2022-11-21T06:03:27.062Z,14.63
2022-11-21T06:06:01.509Z,14.45
2022-11-21T06:08:29.762Z,15.63
2022-11-21T06:10:56.698Z,16.17
2022-11-21T06:13:23.426Z,13.10
2022-11-21T06:15:53.007Z,11.98
2022-11-21T06:18:20.165Z,16.40
2022-11-21T06:20:47.094Z,13.45
2022-11-21T06:23:14.157Z,17.35
2022-11-21T06:25:40.956Z,12.13
2022-11-21T06:28:07.783Z,15.93
2022-11-21T06:30:35.013Z,11.77
2022-11-21T06:33:07.035Z,12.45
2022-11-21T06:35:36.931Z,15.25
2022-11-21T06:38:03.678Z,14.30
2022-11-21T06:40:30.422Z,15.88
2022-11-21T06:42:57.162Z,15.45
2022-11-21T06:45:23.931Z,15.25
2022-11-21T06:47:50.714Z,12.32
2022-11-21T06:50:17.595Z,13.55
2022-11-21T06:52:44.421Z,11.40
2022-11-21T06:55:11.462Z,13.60
2022-11-21T06:57:38.239Z,15.85
2022-11-21T07:00:06.012Z,12.95
2022-11-21T07:02:32.939Z,19.98
2022-11-21T07:04:59.636Z,20.40
2022-11-21T07:07:26.468Z,19.77
2022-11-21T07:09:53.211Z,15.65
2022-11-21T07:12:38.482Z,17.35
2022-11-21T07:15:05.598Z,13.00
2022-11-21T07:17:32.344Z,11.57
2022-11-21T07:19:59.111Z,15.60
2022-11-21T07:22:25.877Z,11.00
2022-11-21T07:24:52.703Z,17.65
2022-11-21T07:27:19.571Z,20.80
2022-11-21T07:29:46.371Z,11.60
2022-11-21T07:32:13.212Z,18.08
2022-11-21T07:34:39.943Z,14.85
2022-11-21T07:37:06.662Z,18.92
2022-11-21T07:39:33.425Z,12.00
2022-11-21T07:42:00.316Z,15.10
2022-11-21T07:44:27.081Z,12.07
2022-11-21T07:46:56.785Z,13.68
2022-11-21T07:49:23.714Z,15.07
2022-11-21T07:51:50.544Z,16.05
2022-11-21T07:54:17.356Z,18.92
2022-11-21T07:56:44.116Z,19.23
2022-11-21T07:59:10.869Z,17.60
2022-11-21T08:01:42.595Z,14.63
2022-11-21T08:04:11.834Z,12.50
2022-11-21T08:06:38.713Z,11.20
2022-11-21T08:09:05.378Z,13.70
2022-11-21T08:11:32.426Z,12.32
2022-11-21T08:13:59.637Z,9.23
2022-11-21T08:16:28.067Z,11.55
2022-11-21T08:18:54.898Z,12.15
2022-11-21T08:21:21.636Z,11.18
2022-11-21T08:23:48.823Z,9.98
2022-11-21T08:26:15.521Z,14.57
2022-11-21T08:28:42.254Z,12.93
2022-11-21T08:31:09.442Z,10.60
2022-11-21T08:33:36.381Z,11.05
2022-11-21T08:36:06.940Z,10.75
2022-11-21T08:38:33.867Z,11.23
2022-11-21T08:41:19.341Z,10.15
2022-11-21T08:43:46.204Z,8.70
2022-11-21T08:46:12.978Z,7.47
2022-11-21T08:48:39.745Z,9.10
2022-11-21T08:51:06.532Z,7.93
2022-11-21T08:53:33.279Z,8.13
2022-11-21T08:56:03.947Z,6.40
2022-11-21T08:58:31.402Z,6.22
2022-11-21T09:01:00.320Z,7.38
2022-11-21T09:03:31.019Z,5.03
2022-11-21T09:05:59.209Z,8.45
2022-11-21T09:08:26.628Z,6.20
2022-11-21T09:10:53.473Z,8.52
2022-11-21T09:13:20.323Z,4.68
2022-11-21T09:16:05.519Z,3.58
2022-11-21T09:18:32.492Z,4.35
2022-11-21T09:20:59.283Z,8.60
2022-11-21T09:23:26.441Z,7.95
2022-11-21T09:25:53.274Z,3.42
2022-11-21T09:28:20.088Z,1.65
2022-11-21T09:30:46.848Z,3.47
2022-11-21T09:33:16.784Z,7.47
2022-11-21T09:35:43.764Z,2.55
2022-11-21T09:38:10.819Z,3.28
2022-11-21T09:40:43.632Z,3.08
2022-11-21T09:43:38.503Z,3.28
2022-11-21T09:46:17.254Z,4.18
2022-11-21T09:48:58.852Z,3.17
2022-11-21T09:51:27.205Z,4.88
2022-11-21T09:54:27.326Z,3.72
2022-11-21T09:56:56.266Z,2.97
2022-11-21T09:59:39.130Z,1.75
2022-11-21T10:02:17.964Z,3.35
2022-11-21T10:04:47.160Z,1.83
2022-11-21T10:07:32.623Z,2.03
2022-11-21T10:10:11.185Z,3.92
2022-11-21T10:13:02.173Z,1.55
2022-11-21T10:16:03.298Z,2.38
2022-11-21T10:18:36.337Z,2.65
2022-11-21T10:23:40.912Z,1.88
2022-11-21T10:26:34.366Z,3.70
2022-11-21T10:31:36.792Z,3.95
2022-11-21T10:34:10.083Z,1.70
2022-11-21T10:36:39.950Z,4.55
2022-11-21T10:39:18.439Z,3.53
2022-11-21T10:41:58.917Z,2.97
2022-11-21T10:44:48.860Z,3.38
2022-11-21T10:47:30.906Z,4.68
2022-11-21T10:50:09.629Z,4.05
2022-11-21T10:52:45.203Z,2.70
2022-11-21T10:55:14.428Z,2.50
2022-11-21T10:57:51.048Z,3.70
2022-11-21T11:00:23.800Z,3.58
2022-11-21T11:03:06.740Z,2.72
2022-11-21T11:05:41.662Z,2.78
2022-11-21T11:08:09.455Z,2.97
2022-11-21T11:10:43.177Z,3.45
2022-11-21T11:13:45.671Z,2.33
2022-11-21T11:16:15.217Z,2.22
2022-11-21T11:18:49.107Z,2.05
2022-11-21T11:21:24.780Z,3.75
2022-11-21T11:23:53.480Z,4.35
2022-11-21T11:26:23.799Z,3.33
2022-11-21T11:28:50.617Z,3.97
2022-11-21T11:31:17.725Z,3.83
2022-11-21T11:33:47.239Z,4.72
2022-11-21T11:36:39.597Z,3.20
2022-11-21T11:39:32.336Z,5.78
2022-11-21T11:42:23.714Z,3.00
2022-11-21T11:45:25.885Z,4.00
2022-11-21T11:47:58.052Z,2.45
2022-11-21T11:50:36.515Z,5.47
2022-11-21T11:53:08.713Z,5.10
2022-11-21T11:55:45.111Z,4.27
2022-11-21T11:58:34.832Z,6.85
2022-11-21T12:01:12.548Z,3.22
2022-11-21T12:04:10.807Z,3.47
2022-11-21T12:07:36.147Z,7.03
2022-11-21T12:09:40.401Z,6.32
2022-11-21T12:12:25.661Z,4.25
2022-11-21T12:15:41.923Z,4.32
2022-11-21T12:18:21.019Z,4.80
2022-11-21T12:21:05.675Z,6.95
2022-11-21T12:23:47.063Z,3.40
2022-11-21T12:26:16.810Z,4.90
2022-11-21T12:29:21.299Z,5.13
2022-11-21T12:32:14.961Z,4.70
2022-11-21T12:35:18.025Z,4.28
2022-11-21T12:38:23.991Z,6.20
2022-11-21T12:41:30.268Z,7.15
2022-11-21T12:44:12.273Z,5.63
2022-11-21T12:46:47.903Z,4.15
2022-11-21T12:49:54.230Z,7.80
2022-11-21T12:53:10.202Z,6.18
2022-11-21T12:55:39.950Z,9.00
2022-11-21T12:58:22.211Z,6.63
2022-11-21T13:01:26.609Z,3.33
2022-11-21T13:04:05.381Z,2.97
2022-11-21T13:06:37.710Z,3.22
2022-11-21T13:09:09.800Z,1.15
2022-11-21T13:12:01.064Z,5.43
2022-11-21T13:15:02.341Z,5.07
2022-11-21T13:17:43.976Z,4.80
2022-11-21T13:20:23.567Z,5.38
2022-11-21T13:22:56.269Z,4.38
2022-11-21T13:25:31.888Z,7.45
2022-11-21T13:28:13.722Z,4.75
2022-11-21T13:30:52.028Z,6.13
2022-11-21T13:33:37.284Z,7.88
2022-11-21T13:36:33.818Z,7.88
2022-11-21T13:39:33.639Z,5.63
2022-11-21T13:42:21.865Z,9.85
2022-11-21T13:44:49.854Z,5.70
2022-11-21T13:47:25.851Z,6.90
2022-11-21T13:50:09.068Z,4.82
2022-11-21T13:55:08.608Z,5.63
2022-11-21T14:00:46.049Z,4.50
2022-11-21T14:03:28.112Z,11.40
2022-11-21T14:06:05.318Z,4.38
2022-11-21T14:08:32.283Z,3.90
2022-11-21T14:10:59.222Z,3.25
2022-11-21T14:13:32.243Z,6.25
2022-11-21T14:18:47.174Z,7.05
2022-11-21T14:21:32.638Z,8.98
2022-11-21T14:24:05.656Z,9.93
2022-11-21T14:29:37.622Z,4.15
2022-11-21T14:32:04.867Z,6.30
2022-11-21T14:34:35.631Z,7.53
2022-11-21T14:37:06.143Z,3.50
2022-11-21T14:39:44.385Z,5.03
2022-11-21T14:42:15.365Z,8.60
2022-11-21T14:44:42.386Z,8.52
2022-11-21T14:47:26.772Z,8.55
2022-11-21T14:49:55.575Z,8.40
2022-11-21T14:52:30.581Z,4.28
2022-11-21T14:55:29.117Z,11.63
2022-11-21T14:57:52.052Z,10.10
2022-11-21T15:00:58.517Z,6.63
2022-11-21T15:03:22.819Z,5.35
2022-11-21T15:06:04.450Z,10.07
2022-11-21T15:09:06.050Z,5.97
2022-11-21T15:11:30.752Z,8.60
2022-11-21T15:14:18.040Z,10.82
2022-11-21T15:16:51.397Z,8.55
2022-11-21T15:19:29.401Z,8.63
2022-11-21T15:21:58.933Z,7.10
2022-11-21T15:24:42.726Z,7.90
2022-11-21T15:27:28.060Z,13.10
2022-11-21T15:30:21.962Z,11.10
2022-11-21T15:33:05.401Z,10.52
2022-11-21T15:35:38.231Z,7.65
2022-11-21T15:38:30.109Z,11.95
2022-11-21T15:40:59.109Z,14.05
2022-11-21T15:43:44.941Z,9.95
2022-11-21T15:46:32.309Z,12.80
2022-11-21T15:49:31.488Z,9.70
2022-11-21T15:52:10.372Z,13.05
2022-11-21T15:54:38.149Z,12.60
2022-11-21T15:57:04.920Z,7.45
2022-11-21T15:59:32.033Z,15.85
2022-11-21T16:01:59.045Z,11.57
2022-11-21T16:04:26.383Z,18.45
2022-11-21T16:06:56.486Z,14.15
2022-11-21T16:09:23.412Z,11.07
2022-11-21T16:11:50.124Z,8.10
2022-11-21T16:14:18.529Z,11.20
2022-11-21T16:16:47.552Z,8.77
2022-11-21T16:19:15.526Z,15.80
2022-11-21T16:21:42.514Z,7.35
2022-11-21T16:24:09.349Z,14.95
2022-11-21T16:26:36.266Z,12.02
2022-11-21T16:29:05.418Z,13.15
2022-11-21T16:31:32.597Z,14.13
2022-11-21T16:34:00.571Z,14.68
2022-11-21T16:36:31.981Z,10.65
2022-11-21T16:39:07.724Z,14.00
2022-11-21T16:41:36.232Z,10.82
2022-11-21T16:44:03.012Z,9.93
2022-11-21T16:46:42.460Z,6.32
2022-11-21T16:49:09.835Z,12.48
2022-11-21T16:51:36.741Z,6.45
2022-11-21T16:54:08.609Z,13.35
2022-11-21T16:56:36.061Z,12.13
2022-11-21T16:59:02.816Z,12.52
2022-11-21T17:01:29.640Z,11.40
2022-11-21T17:03:56.572Z,10.30
2022-11-21T17:06:27.069Z,8.25
2022-11-21T17:08:54.107Z,9.50
2022-11-21T17:11:30.508Z,14.13
2022-11-21T17:14:01.010Z,10.25
2022-11-21T17:16:28.465Z,13.68
2022-11-21T17:18:56.888Z,11.20
2022-11-21T17:21:24.171Z,14.48
2022-11-21T17:23:51.100Z,14.38
2022-11-21T17:26:23.186Z,7.25
2022-11-21T17:28:55.038Z,11.23
2022-11-21T17:31:22.321Z,13.25
2022-11-21T17:33:52.256Z,11.00
2022-11-21T17:36:21.589Z,11.18
2022-11-21T17:38:48.902Z,12.90
2022-11-21T17:41:17.947Z,11.10
2022-11-21T17:43:45.285Z,11.10
2022-11-21T17:46:14.262Z,12.00
2022-11-21T17:48:41.440Z,11.07
2022-11-21T17:51:14.752Z,9.88
2022-11-21T17:53:43.942Z,14.50
2022-11-21T17:56:13.742Z,11.18
2022-11-21T17:58:40.999Z,10.55
2022-11-21T18:01:11.126Z,8.95
2022-11-21T18:03:38.055Z,11.43
2022-11-21T18:06:07.999Z,11.98
2022-11-21T18:08:40.775Z,9.10
2022-11-21T18:11:09.522Z,7.82
2022-11-21T18:13:36.759Z,11.25
2022-11-21T18:16:09.768Z,13.00
2022-11-21T18:21:12.116Z,13.13
2022-11-21T18:23:39.370Z,11.90
2022-11-21T18:26:24.366Z,11.95
2022-11-21T18:29:20.163Z,10.90
2022-11-21T18:31:42.982Z,10.60
2022-11-21T18:34:10.471Z,9.60
2022-11-21T18:36:37.292Z,12.40
2022-11-21T18:39:10.642Z,14.05
2022-11-21T18:41:40.774Z,13.82
2022-11-21T18:44:07.777Z,10.45
2022-11-21T18:46:36.654Z,12.38
2022-11-21T18:49:07.321Z,14.13
2022-11-21T18:51:37.005Z,11.82
2022-11-21T18:54:10.411Z,14.07
2022-11-21T18:56:39.135Z,14.65
2022-11-21T18:59:06.654Z,15.05
2022-11-21T19:01:35.079Z,12.43
2022-11-21T19:04:02.111Z,14.65
2022-11-21T19:06:29.274Z,14.48
2022-11-21T19:08:57.654Z,15.30
2022-11-21T19:11:29.774Z,11.88
2022-11-21T19:13:57.720Z,14.10
2022-11-21T19:16:27.234Z,10.50
2022-11-21T19:19:26.408Z,16.95
2022-11-21T19:21:42.244Z,20.48
2022-11-21T19:24:14.046Z,11.70
2022-11-21T19:26:41.444Z,15.60
2022-11-21T19:29:08.380Z,13.95
2022-11-21T19:31:39.305Z,14.63
2022-11-21T19:34:09.731Z,9.82
2022-11-21T19:36:36.653Z,13.68
2022-11-21T19:39:03.459Z,15.73
2022-11-21T19:41:30.823Z,17.98
2022-11-21T19:43:59.471Z,13.88
2022-11-21T19:46:28.517Z,16.75
2022-11-21T19:48:56.722Z,15.77
2022-11-21T19:51:28.728Z,21.42
2022-11-21T19:53:55.553Z,11.75
2022-11-21T19:56:24.555Z,10.63
2022-11-21T19:58:52.512Z,14.98
2022-11-21T20:01:25.289Z,11.30
2022-11-21T20:03:55.199Z,19.40
2022-11-21T20:06:25.169Z,16.55
2022-11-21T20:08:54.662Z,13.40
2022-11-21T20:11:22.487Z,14.93
2022-11-21T20:13:50.791Z,12.70
2022-11-21T20:16:19.735Z,16.88
2022-11-21T20:18:46.821Z,27.10
2022-11-21T20:21:14.484Z,14.65
2022-11-21T20:23:41.278Z,16.50
2022-11-21T20:26:09.200Z,13.07
2022-11-21T20:28:36.849Z,12.57
2022-11-21T20:31:15.102Z,11.05
2022-11-21T20:33:44.828Z,15.93
2022-11-21T20:36:18.723Z,18.58
2022-11-21T20:38:51.454Z,15.77
2022-11-21T20:41:19.165Z,15.80
2022-11-21T20:44:32.365Z,13.57
2022-11-21T20:46:34.413Z,15.32
2022-11-21T20:49:01.640Z,16.30
2022-11-21T20:52:56.016Z,14.30
2022-11-21T20:54:15.237Z,10.85
2022-11-21T20:56:44.429Z,13.93
2022-11-21T20:59:11.516Z,14.23
2022-11-21T21:01:38.425Z,18.48
2022-11-21T21:04:05.237Z,17.85
2022-11-21T21:06:32.240Z,12.57
2022-11-21T21:08:59.085Z,15.38
2022-11-21T21:11:50.460Z,11.73
2022-11-21T21:14:12.692Z,18.77
2022-11-21T21:16:39.517Z,15.25
2022-11-21T21:19:06.389Z,11.95
2022-11-21T21:21:33.208Z,16.23
2022-11-21T21:24:08.659Z,13.23
2022-11-21T21:26:42.589Z,8.55
2022-11-21T21:29:18.426Z,13.50
2022-11-21T21:31:51.116Z,12.23
2022-11-21T21:34:19.689Z,19.52
2022-11-21T21:36:47.084Z,11.60
2022-11-21T21:39:14.172Z,15.38
2022-11-21T21:41:44.521Z,16.55
2022-11-21T21:44:13.021Z,12.75
2022-11-21T21:46:40.069Z,10.02
2022-11-21T21:49:06.825Z,12.45
2022-11-21T21:58:04.418Z,16.02
2022-11-21T22:00:31.175Z,12.88
2022-11-21T22:02:57.922Z,12.50
2022-11-21T22:05:24.651Z,12.88
2022-11-21T22:07:51.379Z,11.50
2022-11-21T22:10:18.204Z,16.30
2022-11-21T22:12:47.973Z,10.60
2022-11-21T22:15:14.853Z,8.13
2022-11-21T22:17:41.604Z,9.63
2022-11-21T22:20:08.919Z,9.75
2022-11-21T22:22:35.644Z,11.55
2022-11-21T22:25:02.405Z,10.05
2022-11-21T22:27:30.848Z,11.57
2022-11-21T22:29:57.639Z,10.18
2022-11-21T22:32:24.392Z,15.07
2022-11-21T22:34:51.258Z,5.55
2022-11-21T22:37:18.633Z,6.88
2022-11-21T22:39:45.355Z,9.15
2022-11-21T22:42:12.084Z,9.60
2022-11-21T22:44:38.830Z,8.32
2022-11-21T22:47:05.609Z,8.63
2022-11-21T22:49:32.362Z,10.52
2022-11-21T22:51:59.186Z,8.88
2022-11-21T22:54:25.958Z,7.90
2022-11-21T22:56:52.816Z,9.30
2022-11-21T22:59:19.502Z,13.18
2022-11-21T23:01:46.335Z,10.25
2022-11-21T23:04:17.508Z,11.70
2022-11-21T23:06:44.774Z,6.85
2022-11-21T23:09:11.548Z,10.25
2022-11-21T23:11:40.817Z,9.95
2022-11-21T23:14:08.238Z,9.43
2022-11-21T23:16:34.981Z,5.68
2022-11-21T23:19:02.027Z,7.22
2022-11-21T23:21:28.968Z,6.82
2022-11-21T23:23:55.746Z,9.05
2022-11-21T23:26:23.404Z,7.88
2022-11-21T23:28:50.206Z,9.57
2022-11-21T23:31:17.272Z,13.85
2022-11-21T23:33:44.138Z,7.97
2022-11-21T23:36:10.981Z,7.45
2022-11-21T23:38:37.734Z,13.63
2022-11-21T23:41:04.564Z,12.38
2022-11-21T23:43:31.296Z,11.20
2022-11-21T23:45:58.033Z,8.75
2022-11-21T23:48:25.004Z,7.50
2022-11-21T23:50:52.195Z,11.88
2022-11-21T23:53:19.820Z,10.23
2022-11-21T23:55:47.589Z,7.45
2022-11-21T23:58:14.769Z,10.18
